Albion, Washington
Current Conditions -  °F | °C
As of 6:53 AM on Wednesday 26 Nov 2014 (Local Time) from KPUW Reporting Station
Scattered Clouds Scattered Clouds  
Wind Chill: 41°   Ceiling: Unl
Heat Index: 46°   Visibility: 10mi
Dew Point: 42°   Wind: 10mph
Humidity: 86%   Direction: 240°WSW
Pressure: 30.17"   Gusts: NA
Location:  46.79°N, 117.25°W
Report Text: KPUW 261453Z AUTO 24009KT 10SM SCT024 08/06 A3017 RMK AO2 SLP230 T00780056 58000
Loading
Personal Weather Stations






























Interactive Weather Map New forecast layout! Learn more

10-Day Weather Forecast

Advertisements
Track Severe Weather on mobile